SBU122 TFFJ-TFFG
Flight info
| Callsign | SBU122 |
|---|---|
| Flight time | 0h 9m |
| Altitude | 3000 |
| Route | PJM |
| Aircraft | C208/L-SDFGRY/C |
Departure
| Time | 2026-04-26 20:55 |
|---|---|
| Airport | St. Jean Airport (TFFJ) |
Arrival
| Time | 2026-04-26 21:05 |
|---|---|
| Airport | Grand Case-l'Espérance Airport (TFFG) |
| Time | Latitude | Longitude | Altitude | Speed | Heading |
|---|---|---|---|---|---|
| 2026-04-26 20:46 | 17.90372 | -62.84526 | 42 ft | 0 kts | 90° |
| 2026-04-26 20:53 | 17.90390 | -62.84522 | 42 ft | 8 kts | 306° |
| 2026-04-26 20:53 | 17.90390 | -62.84602 | 49 ft | 14 kts | 269° |
| 2026-04-26 20:53 | 17.90433 | -62.84644 | 51 ft | 0 kts | 86° |
| 2026-04-26 20:54 | 17.90437 | -62.84444 | 36 ft | 55 kts | 88° |
| 2026-04-26 20:54 | 17.90453 | -62.83919 | 97 ft | 78 kts | 88° |
| 2026-04-26 20:54 | 17.90891 | -62.83566 | 189 ft | 96 kts | 358° |
| 2026-04-26 20:54 | 17.91529 | -62.83724 | 378 ft | 100 kts | 347° |
| 2026-04-26 20:55 | 17.92192 | -62.83858 | 648 ft | 92 kts | 355° |
| 2026-04-26 20:55 | 17.92800 | -62.83974 | 878 ft | 89 kts | 353° |
| 2026-04-26 20:55 | 17.93432 | -62.84092 | 1013 ft | 97 kts | 354° |
| 2026-04-26 20:55 | 17.94144 | -62.84221 | 1091 ft | 110 kts | 353° |
| 2026-04-26 20:56 | 17.94955 | -62.84365 | 1157 ft | 124 kts | 353° |
| 2026-04-26 20:56 | 17.95750 | -62.84752 | 1307 ft | 126 kts | 319° |
| 2026-04-26 20:56 | 17.96401 | -62.85307 | 1608 ft | 116 kts | 322° |
| 2026-04-26 20:56 | 17.97011 | -62.85826 | 1886 ft | 109 kts | 321° |
| 2026-04-26 20:57 | 17.97642 | -62.86350 | 1980 ft | 122 kts | 322° |
| 2026-04-26 20:57 | 17.98355 | -62.86937 | 1991 ft | 138 kts | 322° |
| 2026-04-26 20:57 | 17.99139 | -62.87578 | 1991 ft | 147 kts | 322° |
| 2026-04-26 20:57 | 17.99962 | -62.88252 | 1991 ft | 152 kts | 322° |
| 2026-04-26 20:58 | 18.00796 | -62.88935 | 1991 ft | 155 kts | 322° |
| 2026-04-26 20:58 | 18.01650 | -62.89633 | 1990 ft | 156 kts | 322° |
| 2026-04-26 20:58 | 18.02514 | -62.90339 | 1987 ft | 158 kts | 322° |
| 2026-04-26 20:58 | 18.03380 | -62.91048 | 1982 ft | 158 kts | 322° |
| 2026-04-26 20:59 | 18.04250 | -62.91761 | 1981 ft | 159 kts | 322° |
| 2026-04-26 20:59 | 18.05122 | -62.92474 | 1976 ft | 159 kts | 322° |
| 2026-04-26 20:59 | 18.05995 | -62.93192 | 1974 ft | 160 kts | 323° |
| 2026-04-26 20:59 | 18.06861 | -62.93920 | 1974 ft | 160 kts | 322° |
| 2026-04-26 21:00 | 18.07738 | -62.94660 | 1972 ft | 161 kts | 322° |
| 2026-04-26 21:00 | 18.08610 | -62.95395 | 1972 ft | 161 kts | 322° |
| 2026-04-26 21:00 | 18.09481 | -62.96127 | 1971 ft | 160 kts | 323° |
| 2026-04-26 21:00 | 18.10365 | -62.96844 | 1973 ft | 160 kts | 323° |
| 2026-04-26 21:01 | 18.11245 | -62.97563 | 1967 ft | 160 kts | 319° |
| 2026-04-26 21:01 | 18.11854 | -62.98530 | 1957 ft | 160 kts | 294° |
| 2026-04-26 21:01 | 18.12345 | -62.99606 | 1835 ft | 166 kts | 294° |
| 2026-04-26 21:01 | 18.12845 | -63.00687 | 1732 ft | 163 kts | 294° |
| 2026-04-26 21:02 | 18.13336 | -63.01755 | 1622 ft | 161 kts | 294° |
| 2026-04-26 21:02 | 18.13767 | -63.02823 | 1498 ft | 160 kts | 285° |
| 2026-04-26 21:02 | 18.14006 | -63.03954 | 1372 ft | 156 kts | 269° |
| 2026-04-26 21:02 | 18.13917 | -63.05054 | 1305 ft | 144 kts | 251° |
| 2026-04-26 21:03 | 18.13460 | -63.05895 | 1193 ft | 127 kts | 222° |
| 2026-04-26 21:03 | 18.12808 | -63.06495 | 981 ft | 123 kts | 212° |
| 2026-04-26 21:03 | 18.12096 | -63.06879 | 837 ft | 107 kts | 179° |
| 2026-04-26 21:03 | 18.11359 | -63.06805 | 683 ft | 107 kts | 168° |
| 2026-04-26 21:04 | 18.10691 | -63.06496 | 472 ft | 108 kts | 137° |
| 2026-04-26 21:04 | 18.10324 | -63.05807 | 217 ft | 109 kts | 110° |
| 2026-04-26 21:04 | 18.10101 | -63.05063 | 27 ft | 102 kts | 109° |
| 2026-04-26 21:04 | 18.09916 | -63.04450 | 12 ft | 72 kts | 107° |
| 2026-04-26 21:05 | 18.09838 | -63.04180 | 13 ft | 6 kts | 53° |
| 2026-04-26 21:05 | 18.09849 | -63.04193 | 13 ft | 5 kts | 280° |
| 2026-04-26 21:05 | 18.09869 | -63.04267 | 12 ft | 17 kts | 288° |
| 2026-04-26 21:05 | 18.09919 | -63.04437 | 12 ft | 31 kts | 287° |
| 2026-04-26 21:06 | 18.10008 | -63.04734 | 11 ft | 18 kts | 301° |
| 2026-04-26 21:06 | 18.10095 | -63.04755 | 17 ft | 12 kts | 284° |
| 2026-04-26 21:06 | 18.10113 | -63.04802 | 17 ft | 9 kts | 346° |
| 2026-04-26 21:06 | 18.10148 | -63.04793 | 17 ft | 0 kts | 16° |